Time;durP1;ratioP1;P1;durP2;ratioP2;P2;SDS_P1;SDS_P2;PMS_P1;PMS_P2;Temp;Humidity;BMP_temperature;BMP_pressure;BME280_temperature;BME280_humidity;BME280_pressure;Samples;Min_cycle;Max_cycle;Signal;HPM_P1;HPM_P2
2023/06/23 00:00:32;;;;;;;9.68;5.68;;;19.40;99.90;;;;;;4114694;28;20051;-59
2023/06/23 00:02:34;;;;;;;7.03;4.97;;;19.40;99.90;;;;;;4114289;28;20417;-58
2023/06/23 00:04:36;;;;;;;6.32;4.75;;;19.40;99.90;;;;;;4115095;28;20055;-59
2023/06/23 00:06:38;;;;;;;7.00;5.75;;;19.40;99.90;;;;;;4115512;28;20066;-59
2023/06/23 00:08:41;;;;;;;9.32;5.78;;;19.40;99.90;;;;;;4118265;28;20069;-58
2023/06/23 00:10:43;;;;;;;9.70;5.20;;;19.30;99.90;;;;;;4118429;28;20063;-58
2023/06/23 00:12:47;;;;;;;8.43;5.53;;;19.30;99.90;;;;;;4117369;28;20077;-59
2023/06/23 00:14:49;;;;;;;7.28;5.25;;;19.30;99.90;;;;;;4117696;28;20047;-59
2023/06/23 00:16:51;;;;;;;12.77;5.70;;;19.30;99.90;;;;;;4118180;28;20074;-59
2023/06/23 00:18:53;;;;;;;7.05;5.40;;;19.20;99.90;;;;;;4116961;28;20520;-59
2023/06/23 00:20:56;;;;;;;6.28;5.28;;;19.30;99.90;;;;;;4118170;28;20058;-59
2023/06/23 00:22:58;;;;;;;8.20;5.13;;;19.20;99.90;;;;;;4116990;28;20130;-59
2023/06/23 00:25:00;;;;;;;8.70;5.95;;;19.10;99.90;;;;;;4118227;28;20047;-59
2023/06/23 00:27:03;;;;;;;8.55;5.25;;;19.20;99.90;;;;;;4117873;28;20057;-59
2023/06/23 00:29:07;;;;;;;11.15;5.68;;;19.20;99.90;;;;;;4117634;28;20492;-59
2023/06/23 00:31:09;;;;;;;8.65;6.15;;;19.20;99.90;;;;;;4118043;28;20051;-59
2023/06/23 00:33:12;;;;;;;11.70;6.03;;;19.10;99.90;;;;;;4117159;28;20122;-59
2023/06/23 00:35:14;;;;;;;6.78;5.15;;;19.20;99.90;;;;;;4118007;28;20122;-59
2023/06/23 00:37:16;;;;;;;9.20;6.22;;;19.20;99.90;;;;;;4118043;28;20078;-59
2023/06/23 00:39:18;;;;;;;8.40;5.82;;;19.10;99.90;;;;;;4117951;28;20046;-59
2023/06/23 00:41:21;;;;;;;7.47;5.55;;;19.20;99.90;;;;;;4117756;28;20466;-59
2023/06/23 00:43:23;;;;;;;10.50;5.80;;;19.10;99.90;;;;;;4116693;28;20058;-59
2023/06/23 00:45:26;;;;;;;9.05;5.80;;;19.10;99.90;;;;;;4117866;28;20063;-59
2023/06/23 00:47:30;;;;;;;8.60;6.10;;;19.10;99.90;;;;;;4117876;28;20050;-59
2023/06/23 00:49:35;;;;;;;9.27;5.73;;;19.00;99.90;;;;;;4118011;28;20047;-60
2023/06/23 00:51:37;;;;;;;11.73;5.63;;;19.00;99.90;;;;;;4120328;28;20455;-59
2023/06/23 00:53:41;;;;;;;7.68;5.05;;;19.00;99.90;;;;;;4119199;28;20049;-63
2023/06/23 00:55:46;;;;;;;7.15;5.82;;;19.00;99.90;;;;;;4120150;28;20051;-60
2023/06/23 00:57:51;;;;;;;7.65;5.20;;;19.00;99.90;;;;;;4118608;28;20113;-59
2023/06/23 00:59:54;;;;;;;6.07;5.43;;;19.00;99.90;;;;;;4118029;28;20081;-60
2023/06/23 01:02:00;;;;;;;8.48;5.40;;;19.00;99.90;;;;;;4117917;28;20046;-59
2023/06/23 01:04:03;;;;;;;7.90;5.15;;;19.00;99.90;;;;;;4117111;28;20042;-59
2023/06/23 01:06:14;;;;;;;8.35;5.40;;;19.00;99.90;;;;;;4117921;28;20051;-59
2023/06/23 01:08:30;;;;;;;11.73;6.20;;;19.00;99.90;;;;;;4117708;28;20133;-59
2023/06/23 01:10:37;;;;;;;13.18;5.30;;;19.00;99.90;;;;;;4117566;28;20113;-62
2023/06/23 01:12:48;;;;;;;11.07;6.03;;;18.90;99.90;;;;;;4116377;28;20137;-59
2023/06/23 01:14:56;;;;;;;7.03;5.90;;;18.90;99.90;;;;;;4117330;28;20061;-59
2023/06/23 01:17:04;;;;;;;11.07;5.70;;;18.90;99.90;;;;;;4117165;28;20081;-59
2023/06/23 01:19:14;;;;;;;8.77;5.90;;;18.90;99.90;;;;;;4116122;28;20397;-59
2023/06/23 01:21:23;;;;;;;7.07;5.45;;;19.00;99.90;;;;;;4117096;28;20049;-59
2023/06/23 01:23:49;;;;;;;7.55;5.90;;;18.90;99.90;;;;;;4116325;28;20496;-59
2023/06/23 01:25:55;;;;;;;8.75;5.95;;;18.90;99.90;;;;;;4116951;28;20125;-58
2023/06/23 01:28:31;;;;;;;6.90;5.05;;;18.90;99.90;;;;;;4117315;28;20047;-59
2023/06/23 01:30:35;;;;;;;9.27;5.70;;;18.90;99.90;;;;;;4117078;28;20046;-59
2023/06/23 01:32:42;;;;;;;9.25;6.57;;;18.90;99.90;;;;;;4116214;28;20412;-59
2023/06/23 01:34:48;;;;;;;7.43;5.55;;;18.80;99.90;;;;;;4117167;28;20047;-60
2023/06/23 01:36:56;;;;;;;7.25;5.53;;;18.80;99.90;;;;;;4116865;28;20085;-59
2023/06/23 01:39:03;;;;;;;8.70;5.95;;;18.90;99.90;;;;;;4116840;28;20057;-59
2023/06/23 01:41:11;;;;;;;9.23;5.85;;;18.80;99.90;;;;;;4116726;28;20406;-59
2023/06/23 01:43:16;;;;;;;9.18;5.20;;;18.90;99.90;;;;;;4116101;28;20489;-58
2023/06/23 01:45:23;;;;;;;10.80;6.05;;;18.80;99.90;;;;;;4116821;28;20501;-59
2023/06/23 01:47:28;;;;;;;6.60;5.05;;;18.80;99.90;;;;;;4117063;28;20049;-59
2023/06/23 01:49:36;;;;;;;11.70;6.22;;;18.90;99.90;;;;;;4116634;28;20054;-59
2023/06/23 01:51:42;;;;;;;7.15;6.18;;;18.80;99.90;;;;;;4116714;28;20553;-59
2023/06/23 01:53:46;;;;;;;9.82;6.93;;;18.80;99.90;;;;;;4115683;28;20121;-58
2023/06/23 01:55:50;;;;;;;9.48;6.28;;;18.80;99.90;;;;;;4116382;28;20070;-59
2023/06/23 01:57:53;;;;;;;8.88;6.50;;;18.70;99.90;;;;;;4116805;28;20105;-59
2023/06/23 01:59:57;;;;;;;10.65;6.22;;;18.70;99.90;;;;;;4116421;28;20049;-59
2023/06/23 02:02:02;;;;;;;10.85;7.43;;;18.70;99.90;;;;;;4116818;28;20053;-60
2023/06/23 02:04:06;;;;;;;8.68;6.20;;;18.70;99.90;;;;;;4115647;28;20081;-59
2023/06/23 02:06:10;;;;;;;9.23;7.27;;;18.70;99.90;;;;;;4116415;28;20051;-59
2023/06/23 02:08:13;;;;;;;10.80;6.88;;;18.60;99.90;;;;;;4116429;28;20042;-65
2023/06/23 02:10:16;;;;;;;13.00;6.97;;;18.60;99.90;;;;;;4115976;28;20477;-59
2023/06/23 02:12:20;;;;;;;13.00;7.78;;;18.60;99.90;;;;;;4116668;28;20043;-59
2023/06/23 02:14:24;;;;;;;7.78;5.90;;;18.60;99.90;;;;;;4115699;28;20126;-59
2023/06/23 02:16:28;;;;;;;8.67;6.23;;;18.70;99.90;;;;;;4116205;28;20492;-60
2023/06/23 02:18:35;;;;;;;9.75;6.50;;;18.60;99.90;;;;;;4116396;28;20103;-59
2023/06/23 02:20:39;;;;;;;10.15;6.50;;;18.60;99.90;;;;;;4116194;28;20086;-59
2023/06/23 02:22:44;;;;;;;10.70;6.93;;;18.60;99.90;;;;;;4115506;28;20077;-60
2023/06/23 02:24:48;;;;;;;10.80;7.25;;;18.60;99.90;;;;;;4115882;28;20122;-59
2023/06/23 02:26:51;;;;;;;12.02;7.65;;;18.60;99.90;;;;;;4116389;28;20413;-58
2023/06/23 02:28:54;;;;;;;9.07;7.05;;;18.60;99.90;;;;;;4115078;28;20101;-59
2023/06/23 02:30:58;;;;;;;11.70;7.30;;;18.60;99.90;;;;;;4115234;28;20050;-59
2023/06/23 02:33:00;;;;;;;10.18;6.63;;;18.50;99.90;;;;;;4114135;28;20051;-59
2023/06/23 02:35:05;;;;;;;10.10;6.28;;;18.60;99.90;;;;;;4114904;28;20101;-59
2023/06/23 02:37:09;;;;;;;7.75;6.68;;;18.50;99.90;;;;;;4115905;28;20141;-59
2023/06/23 02:39:13;;;;;;;10.23;6.75;;;18.50;99.90;;;;;;4115887;28;20047;-60
2023/06/23 02:41:17;;;;;;;11.73;7.57;;;18.50;99.90;;;;;;4116263;28;20457;-59
2023/06/23 02:43:24;;;;;;;10.52;6.57;;;18.50;99.90;;;;;;4115061;28;20047;-59
2023/06/23 02:45:30;;;;;;;9.15;6.80;;;18.50;99.90;;;;;;4115956;28;20050;-62
2023/06/23 02:47:37;;;;;;;10.32;7.13;;;18.40;99.90;;;;;;4117456;28;20051;-60
2023/06/23 02:49:40;;;;;;;8.35;6.68;;;18.50;99.90;;;;;;4117126;28;20135;-59
2023/06/23 02:51:47;;;;;;;10.38;6.70;;;18.50;99.90;;;;;;4116959;28;20049;-59
2023/06/23 02:53:56;;;;;;;10.23;7.15;;;18.50;99.90;;;;;;4114935;28;20054;-59
2023/06/23 02:56:03;;;;;;;9.25;6.78;;;18.50;99.90;;;;;;4115904;28;20047;-59
2023/06/23 02:58:09;;;;;;;8.57;5.97;;;18.50;99.90;;;;;;4115981;28;20054;-59
2023/06/23 03:00:15;;;;;;;11.30;5.97;;;18.40;99.90;;;;;;4115809;28;20046;-59
2023/06/23 03:02:22;;;;;;;8.73;6.53;;;18.30;99.90;;;;;;4115860;28;20047;-62
2023/06/23 03:04:24;;;;;;;9.40;6.32;;;18.40;99.90;;;;;;4114799;28;20101;-63
2023/06/23 03:06:26;;;;;;;7.20;5.63;;;18.30;99.90;;;;;;4115556;28;20531;-59
2023/06/23 03:08:31;;;;;;;9.80;7.22;;;18.30;99.90;;;;;;4115389;28;20113;-59
2023/06/23 03:10:33;;;;;;;8.20;5.82;;;18.30;99.90;;;;;;4115552;28;20130;-59
2023/06/23 03:12:35;;;;;;;7.78;6.20;;;18.20;99.90;;;;;;4115324;28;20054;-60
2023/06/23 03:14:38;;;;;;;10.23;5.85;;;18.20;99.90;;;;;;4115077;28;20054;-59
2023/06/23 03:16:46;;;;;;;8.52;5.88;;;18.20;99.90;;;;;;4114539;28;20101;-59
2023/06/23 03:18:55;;;;;;;8.90;5.72;;;18.20;99.90;;;;;;4115437;28;20054;-59
2023/06/23 03:21:02;;;;;;;9.60;6.47;;;18.20;99.90;;;;;;4115564;28;20077;-59
2023/06/23 03:23:08;;;;;;;8.77;6.15;;;18.20;99.90;;;;;;4114406;28;20059;-60
2023/06/23 03:25:16;;;;;;;9.00;6.20;;;18.20;99.90;;;;;;4115454;28;20043;-60
2023/06/23 03:27:22;;;;;;;11.68;6.65;;;18.20;99.90;;;;;;4115412;28;20047;-59
2023/06/23 03:29:27;;;;;;;7.55;6.15;;;18.20;99.90;;;;;;4114113;28;20126;-70
2023/06/23 03:31:29;;;;;;;;;;;18.20;99.90;;;;;;4115993;28;20481;-59
2023/06/23 03:33:35;;;;;;;10.30;6.03;;;18.10;99.90;;;;;;4114335;28;19969;-60
2023/06/23 03:35:42;;;;;;;6.75;5.70;;;18.10;99.90;;;;;;4115751;28;20516;-60
2023/06/23 03:37:48;;;;;;;9.07;5.97;;;18.10;99.90;;;;;;4114875;28;20069;-59
2023/06/23 03:39:54;;;;;;;8.23;6.72;;;18.20;99.90;;;;;;4115080;28;20053;-59
2023/06/23 03:42:00;;;;;;;9.82;6.55;;;18.10;99.90;;;;;;4114676;28;20070;-59
2023/06/23 03:44:12;;;;;;;9.52;6.72;;;18.10;99.90;;;;;;4113091;28;20133;-59
2023/06/23 03:46:21;;;;;;;14.80;7.60;;;18.10;99.90;;;;;;4115056;28;20410;-59
2023/06/23 03:48:28;;;;;;;11.63;6.93;;;18.10;99.90;;;;;;4115214;28;20469;-59
2023/06/23 03:50:35;;;;;;;13.50;7.82;;;18.10;99.90;;;;;;4115266;28;20066;-59
2023/06/23 03:52:38;;;;;;;10.82;7.18;;;18.10;99.90;;;;;;4114839;28;20130;-59
2023/06/23 03:54:42;;;;;;;10.05;7.28;;;18.10;99.90;;;;;;4114207;28;20180;-59
2023/06/23 03:56:46;;;;;;;13.75;7.55;;;18.10;99.90;;;;;;4115416;28;20462;-59
2023/06/23 03:58:51;;;;;;;11.40;7.18;;;18.10;99.90;;;;;;4115208;28;20051;-59
2023/06/23 04:00:55;;;;;;;10.82;7.15;;;18.10;99.90;;;;;;4115277;28;20047;-59
2023/06/23 04:02:59;;;;;;;13.50;7.63;;;18.10;99.90;;;;;;4114478;28;20405;-59
2023/06/23 04:05:04;;;;;;;15.52;7.30;;;18.00;99.90;;;;;;4115170;28;20047;-59
2023/06/23 04:07:08;;;;;;;10.13;7.28;;;18.00;99.90;;;;;;4114997;28;20097;-59
2023/06/23 04:09:13;;;;;;;9.67;7.30;;;18.00;99.90;;;;;;4115454;28;20047;-59
2023/06/23 04:11:17;;;;;;;9.63;6.13;;;18.00;99.90;;;;;;4115919;28;20125;-63
2023/06/23 04:13:22;;;;;;;10.40;6.70;;;18.10;99.90;;;;;;4115630;28;20046;-62
2023/06/23 04:15:26;;;;;;;11.82;8.02;;;18.00;99.90;;;;;;4117619;28;20050;-60
2023/06/23 04:17:31;;;;;;;12.45;7.47;;;18.00;99.90;;;;;;4118160;28;20043;-60
2023/06/23 04:19:36;;;;;;;13.95;7.18;;;18.10;99.90;;;;;;4118173;28;20050;-61
2023/06/23 04:21:39;;;;;;;10.63;6.93;;;18.10;99.90;;;;;;4116019;28;20047;-59
2023/06/23 04:23:42;;;;;;;10.95;7.45;;;18.00;99.90;;;;;;4114254;28;20059;-59
2023/06/23 04:25:48;;;;;;;13.60;7.68;;;18.10;99.90;;;;;;4115294;28;20082;-58
2023/06/23 04:27:56;;;;;;;10.60;7.15;;;18.00;99.90;;;;;;4115359;28;20141;-59
2023/06/23 04:29:59;;;;;;;17.92;7.95;;;18.00;99.90;;;;;;4115102;28;20050;-59
2023/06/23 04:32:04;;;;;;;8.82;6.88;;;18.00;99.90;;;;;;4113716;28;20053;-59
2023/06/23 04:34:06;;;;;;;8.73;6.45;;;18.00;99.90;;;;;;4114238;28;20390;-61
2023/06/23 04:36:13;;;;;;;11.50;7.15;;;18.00;99.90;;;;;;4114949;28;20134;-59
2023/06/23 04:38:17;;;;;;;10.18;6.07;;;18.00;99.90;;;;;;4115164;28;20057;-59
2023/06/23 04:40:25;;;;;;;10.88;6.40;;;18.10;99.90;;;;;;4115070;28;20050;-59
2023/06/23 04:42:33;;;;;;;12.30;6.15;;;18.10;99.90;;;;;;4115811;28;20046;-60
2023/06/23 04:44:42;;;;;;;9.65;6.20;;;18.10;99.90;;;;;;4114805;28;20463;-59
2023/06/23 04:46:46;;;;;;;10.52;6.45;;;18.10;99.90;;;;;;4116480;28;20066;-60
2023/06/23 04:48:53;;;;;;;10.18;6.40;;;18.20;99.90;;;;;;4116009;28;20047;-59
2023/06/23 04:50:58;;;;;;;11.25;7.20;;;18.20;99.90;;;;;;4115519;28;20118;-59
2023/06/23 04:53:05;;;;;;;8.95;6.45;;;18.20;99.90;;;;;;4114642;28;20054;-60
2023/06/23 04:55:10;;;;;;;10.40;6.32;;;18.20;99.90;;;;;;4116010;28;20042;-59
2023/06/23 04:57:16;;;;;;;10.25;6.20;;;18.20;99.90;;;;;;4117813;28;20142;-59
2023/06/23 04:59:21;;;;;;;9.55;5.97;;;18.20;99.90;;;;;;4117724;28;20111;-59
2023/06/23 05:01:26;;;;;;;9.52;5.57;;;18.30;99.90;;;;;;4117653;28;20416;-59
2023/06/23 05:03:32;;;;;;;9.38;6.10;;;18.30;99.90;;;;;;4116370;28;20042;-59
2023/06/23 05:05:38;;;;;;;9.25;6.63;;;18.40;99.90;;;;;;4117277;28;20051;-59
2023/06/23 05:07:42;;;;;;;11.50;5.90;;;18.30;99.90;;;;;;4116464;28;20074;-59
2023/06/23 05:09:48;;;;;;;7.25;5.25;;;18.40;99.90;;;;;;4117473;28;20085;-59
2023/06/23 05:11:52;;;;;;;9.35;5.25;;;18.30;99.90;;;;;;4117566;28;20075;-59
2023/06/23 05:13:56;;;;;;;11.13;5.78;;;18.40;99.90;;;;;;4116277;28;20404;-59
2023/06/23 05:16:02;;;;;;;8.15;4.95;;;18.50;99.90;;;;;;4117307;28;20081;-59
2023/06/23 05:18:06;;;;;;;7.00;5.32;;;18.40;99.90;;;;;;4117085;28;20428;-59
2023/06/23 05:20:11;;;;;;;9.67;5.60;;;18.40;99.90;;;;;;4117441;28;20117;-59
2023/06/23 05:22:17;;;;;;;7.90;5.60;;;18.30;99.90;;;;;;4117177;28;20047;-59
2023/06/23 05:24:22;;;;;;;7.72;5.28;;;18.40;99.90;;;;;;4116220;28;20121;-59
2023/06/23 05:26:25;;;;;;;10.95;5.68;;;18.50;99.90;;;;;;4117304;28;20131;-60
2023/06/23 05:28:31;;;;;;;7.65;5.28;;;18.50;99.90;;;;;;4117343;28;20076;-59
2023/06/23 05:30:35;;;;;;;8.95;5.40;;;18.60;99.90;;;;;;4117195;28;20162;-60
2023/06/23 05:32:38;;;;;;;7.72;5.05;;;18.60;99.90;;;;;;4115827;28;20055;-59
2023/06/23 05:34:43;;;;;;;6.72;4.45;;;18.40;99.90;;;;;;4116146;28;20050;-59
2023/06/23 05:36:48;;;;;;;7.55;5.10;;;18.50;99.90;;;;;;4116016;28;20517;-59
2023/06/23 05:38:52;;;;;;;;;;;18.50;99.90;;;;;;4117362;28;20043;-59
2023/06/23 05:40:54;;;;;;;11.25;5.00;;;18.50;99.90;;;;;;4115663;28;19922;-60
2023/06/23 05:42:56;;;;;;;9.60;5.13;;;18.50;99.90;;;;;;4116806;28;20385;-59
2023/06/23 05:44:59;;;;;;;7.63;4.90;;;18.50;99.90;;;;;;4115844;28;20054;-59
2023/06/23 05:47:04;;;;;;;8.65;5.00;;;18.60;99.90;;;;;;4116672;28;20467;-59
2023/06/23 05:49:12;;;;;;;8.05;5.80;;;18.60;99.90;;;;;;4116761;28;20532;-59
2023/06/23 05:51:17;;;;;;;7.40;4.88;;;18.70;99.90;;;;;;4116830;28;20472;-59
2023/06/23 05:53:22;;;;;;;10.02;5.63;;;18.70;99.90;;;;;;4115947;28;20046;-60
2023/06/23 05:55:27;;;;;;;;;;;18.70;99.90;;;;;;4117122;28;20078;-60
2023/06/23 05:57:34;;;;;;;13.07;6.18;;;18.80;99.90;;;;;;4116572;28;19992;-59
2023/06/23 05:59:39;;;;;;;10.88;5.22;;;18.70;99.90;;;;;;4116696;28;20053;-59
2023/06/23 06:01:45;;;;;;;10.38;6.05;;;18.80;99.90;;;;;;4116259;28;20416;-59
2023/06/23 06:03:57;;;;;;;11.32;6.10;;;18.90;99.90;;;;;;4114639;28;20130;-59
2023/06/23 06:06:01;;;;;;;11.23;5.55;;;19.00;99.90;;;;;;4116268;28;20050;-59
2023/06/23 06:08:05;;;;;;;12.85;5.82;;;19.00;99.90;;;;;;4116744;28;20053;-59
2023/06/23 06:10:09;;;;;;;13.05;6.47;;;19.00;99.90;;;;;;4116316;28;20420;-59
2023/06/23 06:12:18;;;;;;;9.40;5.90;;;18.90;99.90;;;;;;4116474;28;20070;-59
2023/06/23 06:14:22;;;;;;;12.25;6.63;;;19.00;99.90;;;;;;4115490;28;20061;-60
2023/06/23 06:16:25;;;;;;;8.70;6.10;;;19.00;99.90;;;;;;4116209;28;20358;-59
2023/06/23 06:18:30;;;;;;;11.68;6.45;;;19.00;99.90;;;;;;4116095;28;20046;-59
2023/06/23 06:20:34;;;;;;;9.55;5.82;;;18.90;99.90;;;;;;4116247;28;20408;-59
2023/06/23 06:22:39;;;;;;;10.02;5.63;;;19.00;99.90;;;;;;4116431;28;20050;-59
2023/06/23 06:24:43;;;;;;;9.18;5.90;;;19.10;99.90;;;;;;4115498;28;20043;-59
2023/06/23 06:26:48;;;;;;;11.98;5.88;;;19.10;99.90;;;;;;4116398;28;20508;-58
2023/06/23 06:28:54;;;;;;;;;;;19.20;99.90;;;;;;4116838;28;20488;-59
2023/06/23 06:30:57;;;;;;;12.18;6.20;;;19.10;99.90;;;;;;4115975;28;20379;-59
2023/06/23 06:33:01;;;;;;;11.30;6.60;;;19.10;99.90;;;;;;4116090;28;20053;-59
2023/06/23 06:35:06;;;;;;;7.95;5.35;;;19.20;99.90;;;;;;4115345;28;20508;-59
2023/06/23 06:37:09;;;;;;;11.57;6.65;;;19.20;99.90;;;;;;4116372;28;20556;-65
2023/06/23 06:39:12;;;;;;;11.05;6.28;;;19.30;99.90;;;;;;4117764;28;20460;-60
2023/06/23 06:41:15;;;;;;;14.40;6.78;;;19.40;99.90;;;;;;4116796;28;20050;-60
2023/06/23 06:43:17;;;;;;;14.68;7.75;;;19.50;99.90;;;;;;4116168;28;20057;-60
2023/06/23 06:45:21;;;;;;;15.10;7.75;;;19.50;99.90;;;;;;4114733;28;20469;-59
2023/06/23 06:47:25;;;;;;;12.85;6.35;;;19.50;99.90;;;;;;4116034;28;20047;-59
2023/06/23 06:49:29;;;;;;;13.87;6.50;;;19.60;99.90;;;;;;4116068;28;20400;-59
2023/06/23 06:51:32;;;;;;;13.20;6.80;;;19.70;99.90;;;;;;4114626;28;20069;-60
2023/06/23 06:53:35;;;;;;;7.57;5.68;;;19.80;99.90;;;;;;4113183;28;20047;-59
2023/06/23 06:55:38;;;;;;;7.75;5.05;;;19.90;99.90;;;;;;4097321;29;20039;-59
2023/06/23 06:57:46;;;;;;;14.52;6.55;;;20.10;99.90;;;;;;4115014;28;20047;-56
2023/06/23 06:59:53;;;;;;;8.25;5.10;;;20.20;99.90;;;;;;4115118;28;20051;-60
2023/06/23 07:01:58;;;;;;;7.95;5.97;;;20.30;99.90;;;;;;4115511;28;20166;-57
2023/06/23 07:04:02;;;;;;;11.55;6.97;;;20.50;99.90;;;;;;4114519;28;20524;-56
2023/06/23 07:06:05;;;;;;;12.37;6.77;;;20.60;99.90;;;;;;4115613;28;20045;-56
2023/06/23 07:08:07;;;;;;;10.10;6.07;;;20.80;99.90;;;;;;4115503;28;20118;-56
2023/06/23 07:10:10;;;;;;;9.52;5.90;;;20.90;99.90;;;;;;4113853;28;20054;-59
2023/06/23 07:12:12;;;;;;;11.45;6.50;;;21.00;99.90;;;;;;4115317;28;20055;-57
2023/06/23 07:14:14;;;;;;;15.90;7.43;;;21.20;99.90;;;;;;4113898;28;20038;-56
2023/06/23 07:16:16;;;;;;;9.85;5.85;;;21.40;99.70;;;;;;4114868;28;20046;-56
2023/06/23 07:18:20;;;;;;;13.43;7.32;;;21.50;99.50;;;;;;4115509;28;20051;-56
2023/06/23 07:20:22;;;;;;;12.07;7.03;;;21.60;99.80;;;;;;4115200;28;20393;-57
2023/06/23 07:22:24;;;;;;;14.05;7.55;;;21.70;99.80;;;;;;4115563;28;20043;-57
2023/06/23 07:24:26;;;;;;;12.07;6.45;;;21.70;99.90;;;;;;4115387;28;20053;-58
2023/06/23 07:26:28;;;;;;;15.90;6.32;;;21.80;99.60;;;;;;4113614;28;20100;-61
2023/06/23 07:28:30;;;;;;;10.93;6.05;;;21.90;99.60;;;;;;4116904;28;20054;-60
2023/06/23 07:30:33;;;;;;;10.80;6.28;;;22.00;99.40;;;;;;4116226;28;20051;-57
2023/06/23 07:32:35;;;;;;;15.98;6.60;;;22.00;98.90;;;;;;4115910;28;20341;-57
2023/06/23 07:34:39;;;;;;;8.98;6.00;;;22.00;98.90;;;;;;4113375;28;20130;-57
2023/06/23 07:36:41;;;;;;;14.50;6.65;;;22.10;98.80;;;;;;4114770;28;20070;-56
2023/06/23 07:38:43;;;;;;;11.68;5.63;;;22.20;98.90;;;;;;4098061;29;20590;-59
2023/06/23 07:40:45;;;;;;;12.75;5.47;;;22.30;98.30;;;;;;4113413;28;20162;-57
2023/06/23 07:42:47;;;;;;;12.15;6.47;;;22.50;98.40;;;;;;4106099;28;20416;-57
2023/06/23 07:44:49;;;;;;;17.20;5.38;;;22.60;98.30;;;;;;4114099;28;20062;-56
2023/06/23 07:46:51;;;;;;;11.48;6.00;;;22.70;97.90;;;;;;4114990;28;20071;-57
2023/06/23 07:48:53;;;;;;;9.80;5.82;;;22.70;97.80;;;;;;4097700;28;20039;-55
2023/06/23 07:50:57;;;;;;;10.80;5.75;;;22.70;98.00;;;;;;4114768;28;20385;-55
2023/06/23 07:52:59;;;;;;;13.20;5.68;;;22.80;97.60;;;;;;4115258;28;20511;-54
2023/06/23 07:55:01;;;;;;;11.63;6.07;;;22.80;97.90;;;;;;4114334;28;20110;-57
2023/06/23 07:57:07;;;;;;;10.00;5.40;;;22.90;97.30;;;;;;4115508;28;20047;-55
2023/06/23 07:59:10;;;;;;;8.68;5.05;;;23.00;97.50;;;;;;4113493;28;20051;-55
2023/06/23 08:01:12;;;;;;;12.05;5.40;;;23.10;97.00;;;;;;4114674;28;20085;-58
2023/06/23 08:03:16;;;;;;;8.93;4.82;;;23.20;97.20;;;;;;4115073;28;20053;-57
2023/06/23 08:05:19;;;;;;;11.45;5.97;;;23.30;96.50;;;;;;4114152;28;20047;-58
2023/06/23 08:07:22;;;;;;;9.30;5.35;;;23.40;96.60;;;;;;4114676;28;20049;-57
2023/06/23 08:09:24;;;;;;;9.93;5.18;;;23.50;96.20;;;;;;4115191;28;20070;-61
2023/06/23 08:11:26;;;;;;;10.68;5.35;;;23.50;96.80;;;;;;4113864;28;20049;-57
2023/06/23 08:13:28;;;;;;;11.90;4.78;;;23.50;96.10;;;;;;4113496;28;20046;-57
2023/06/23 08:15:30;;;;;;;7.60;4.95;;;23.60;96.30;;;;;;4096755;28;20054;-57
2023/06/23 08:17:33;;;;;;;8.93;4.93;;;23.40;95.40;;;;;;4114815;28;20038;-57
2023/06/23 08:19:36;;;;;;;10.05;4.80;;;23.40;95.50;;;;;;4097655;28;20055;-58
2023/06/23 08:21:38;;;;;;;9.68;4.30;;;23.40;96.20;;;;;;4114583;28;20477;-57
2023/06/23 08:23:43;;;;;;;12.13;4.90;;;23.50;95.90;;;;;;4115200;28;20160;-57
2023/06/23 08:25:46;;;;;;;8.73;5.03;;;23.70;96.10;;;;;;4115611;28;20043;-57
2023/06/23 08:27:48;;;;;;;9.10;4.97;;;23.70;96.20;;;;;;4114989;28;20500;-57
2023/06/23 08:29:50;;;;;;;10.05;4.53;;;23.90;96.20;;;;;;4118120;28;20089;-57
2023/06/23 08:31:52;;;;;;;12.63;4.22;;;23.90;95.60;;;;;;4116722;28;20105;-57
2023/06/23 08:33:55;;;;;;;9.63;4.07;;;24.00;95.80;;;;;;4099559;29;20556;-57
2023/06/23 08:35:57;;;;;;;11.95;4.70;;;24.00;95.30;;;;;;4101503;29;20090;-57
2023/06/23 08:37:59;;;;;;;11.27;4.10;;;24.00;95.00;;;;;;4094722;29;20538;-57
2023/06/23 08:40:03;;;;;;;5.45;3.95;;;24.00;95.10;;;;;;4117693;28;20137;-57
2023/06/23 08:42:06;;;;;;;13.75;3.75;;;24.10;95.20;;;;;;4117685;28;20102;-58
2023/06/23 08:44:13;;;;;;;7.43;4.15;;;24.10;94.80;;;;;;4102414;28;20051;-59
2023/06/23 08:46:18;;;;;;;8.00;3.97;;;24.10;95.60;;;;;;4117374;28;20390;-59
2023/06/23 08:48:23;;;;;;;6.63;3.38;;;24.10;95.10;;;;;;4115904;28;20051;-59
2023/06/23 08:50:26;;;;;;;7.57;3.63;;;24.10;94.50;;;;;;4117685;28;20079;-58
2023/06/23 08:52:28;;;;;;;10.50;4.43;;;24.30;94.80;;;;;;4117687;28;20480;-59
2023/06/23 08:54:30;;;;;;;6.35;3.72;;;24.30;94.30;;;;;;4116319;28;20058;-59
2023/06/23 08:56:34;;;;;;;6.72;3.65;;;24.20;94.00;;;;;;4116991;28;20051;-59
2023/06/23 08:58:36;;;;;;;13.23;4.22;;;24.30;94.80;;;;;;4117391;28;20585;-59
2023/06/23 09:00:39;;;;;;;7.00;3.70;;;24.30;94.90;;;;;;4117433;28;20064;-59
2023/06/23 09:02:41;;;;;;;14.63;4.40;;;24.40;94.50;;;;;;4117545;28;20051;-58
2023/06/23 09:04:44;;;;;;;8.02;3.90;;;24.30;94.20;;;;;;4114916;28;20122;-59
2023/06/23 09:06:46;;;;;;;6.55;3.78;;;24.40;94.40;;;;;;4117019;28;20068;-59
2023/06/23 09:08:49;;;;;;;10.35;3.65;;;24.60;94.10;;;;;;4117119;28;20502;-59
2023/06/23 09:10:51;;;;;;;6.28;3.22;;;24.60;93.60;;;;;;4116743;28;20052;-60
2023/06/23 09:13:24;;;;;;;8.10;3.00;;;24.60;93.50;;;;;;4117183;28;20053;-58
2023/06/23 09:15:26;;;;;;;9.05;3.40;;;24.60;93.00;;;;;;4114928;28;20046;-57
2023/06/23 09:17:29;;;;;;;7.60;3.53;;;24.70;93.30;;;;;;4117847;28;20054;-58
2023/06/23 09:19:33;;;;;;;8.10;3.58;;;24.70;93.50;;;;;;4118003;28;20051;-57
2023/06/23 09:21:36;;;;;;;12.05;3.08;;;24.80;92.70;;;;;;4116136;28;20540;-57
2023/06/23 09:23:38;;;;;;;5.60;2.83;;;24.80;93.10;;;;;;4116883;28;20069;-59
2023/06/23 09:25:43;;;;;;;5.63;2.70;;;24.80;92.80;;;;;;4115596;28;20109;-58
2023/06/23 09:27:45;;;;;;;;;;;24.80;92.60;;;;;;4117332;28;20050;-58
2023/06/23 09:30:00;;;;;;;5.72;3.00;;;24.90;92.90;;;;;;4116613;28;20358;-56
2023/06/23 09:32:03;;;;;;;;;;;25.00;92.70;;;;;;4117446;28;20394;-59
2023/06/23 09:34:05;;;;;;;7.40;3.67;;;25.10;92.50;;;;;;4114713;28;20434;-59
2023/06/23 09:36:08;;;;;;;5.63;2.90;;;25.20;92.40;;;;;;4116363;28;20494;-59
2023/06/23 09:38:10;;;;;;;4.10;2.45;;;25.20;92.20;;;;;;4115437;28;20047;-59
2023/06/23 09:40:12;;;;;;;6.22;2.70;;;25.30;92.30;;;;;;4115185;28;20409;-57
2023/06/23 09:42:14;;;;;;;8.07;3.35;;;25.40;92.00;;;;;;4116902;28;20192;-56
2023/06/23 09:44:16;;;;;;;4.63;2.35;;;25.40;91.40;;;;;;4115924;28;20539;-56
2023/06/23 09:46:22;;;;;;;6.30;3.42;;;25.50;91.00;;;;;;4116610;28;20069;-56
2023/06/23 09:48:28;;;;;;;4.75;2.20;;;25.60;91.00;;;;;;4116630;28;20404;-56
2023/06/23 09:50:30;;;;;;;5.45;2.55;;;25.60;90.20;;;;;;4116404;28;20042;-56
2023/06/23 09:52:33;;;;;;;10.30;2.90;;;25.80;90.60;;;;;;4116933;28;20448;-56
2023/06/23 09:54:37;;;;;;;7.63;2.42;;;25.80;90.60;;;;;;4113826;28;20046;-56
2023/06/23 09:56:39;;;;;;;7.13;2.77;;;25.90;90.30;;;;;;4115915;28;20173;-55
2023/06/23 09:58:43;;;;;;;3.08;2.10;;;25.90;88.40;;;;;;4116404;28;20078;-56
2023/06/23 10:00:45;;;;;;;7.78;2.85;;;26.10;89.80;;;;;;4116441;28;20192;-55
2023/06/23 10:02:48;;;;;;;3.30;2.25;;;26.10;89.30;;;;;;4116714;28;20055;-56
2023/06/23 10:04:56;;;;;;;3.57;2.10;;;26.10;88.30;;;;;;4115457;28;20066;-55
2023/06/23 10:07:18;;;;;;;5.10;2.60;;;26.10;88.70;;;;;;4113682;28;20457;-56
2023/06/23 10:09:23;;;;;;;7.10;2.63;;;26.20;88.80;;;;;;4114699;28;20047;-56
2023/06/23 10:11:30;;;;;;;5.70;2.58;;;26.40;89.70;;;;;;4115784;28;20039;-56
2023/06/23 10:13:33;;;;;;;3.67;2.35;;;26.40;88.10;;;;;;4116238;28;20050;-56
2023/06/23 10:15:35;;;;;;;3.17;2.30;;;26.50;88.10;;;;;;4114843;28;20035;-56
2023/06/23 10:17:38;;;;;;;8.13;2.75;;;26.50;86.30;;;;;;4115884;28;20046;-57
2023/06/23 10:19:44;;;;;;;5.97;2.40;;;26.50;86.40;;;;;;4116124;28;20423;-56
2023/06/23 10:21:47;;;;;;;8.00;2.75;;;26.60;88.20;;;;;;4115896;28;20042;-56
2023/06/23 10:23:51;;;;;;;4.53;2.55;;;26.60;86.20;;;;;;4098792;28;20055;-56
2023/06/23 10:25:56;;;;;;;3.78;2.30;;;26.40;84.20;;;;;;4114706;28;20146;-55
2023/06/23 10:28:03;;;;;;;4.18;2.10;;;26.50;84.50;;;;;;4114892;28;20050;-54
2023/06/23 10:30:10;;;;;;;5.80;2.30;;;26.60;85.90;;;;;;4116263;28;20058;-54
2023/06/23 10:32:15;;;;;;;7.95;2.78;;;26.70;85.30;;;;;;4115800;28;20043;-57
2023/06/23 10:34:19;;;;;;;4.30;2.47;;;26.60;84.90;;;;;;4114970;28;20046;-55
2023/06/23 10:36:24;;;;;;;3.15;2.30;;;26.60;85.20;;;;;;4115077;28;20050;-55
2023/06/23 10:38:28;;;;;;;4.45;2.55;;;26.60;85.20;;;;;;4115453;28;20053;-55
2023/06/23 10:40:37;;;;;;;3.22;2.30;;;26.60;85.00;;;;;;4112501;28;20125;-56
2023/06/23 10:42:40;;;;;;;4.13;2.67;;;26.60;85.10;;;;;;4115190;28;20138;-57
2023/06/23 10:44:43;;;;;;;4.68;2.40;;;26.60;84.30;;;;;;4114059;28;20078;-55